Airfield :
LOGIN :

Register | Disclaimer

   EN    FR    IT 

 










Legend :    VFR   Marginal VFR   IFR   Intensive IFR   Very Intensive IFR
Visi :
Ceiling :
>= 8 km
>= 3000ft
5 to 8 km
1000 to 3000 ft
1500m to 5 km
500 to 1000 ft
800 to 1500m
200 to 500 ft
< 800m
< 200 ft
Symbols :   Thunderstorms  Fog  Heavy snow  Heavy precipitations  Wind > 20 kt
SIGMETs :     Misc.  Thunderstorms  Icing  Turbulence  Mountain Waves  Volcanic Ashes







- Airport Elevation : 257 ft
- IATA code : MAN
- Download approach charts


EGCC - Manchester

CURRENT METAR :
  • 121550Z AUTO 18006KT 130V220 9999 NCD 02/M00 Q1005 NOSIG

EXPIRED METARs :
  • 121520Z AUTO 18005KT 140V210 9999 NCD 01/M00 Q1005
  • 121450Z AUTO 17006KT 120V210 9999 NCD 01/M01 Q1005 NOSIG
  • 121420Z AUTO 17004KT 130V220 9999 NCD 01/M01 Q1005 NOSIG
  • 121350Z AUTO 18005KT 130V220 9999 SCT029 01/M01 Q1006 NOSIG
  • 121320Z AUTO 18004KT 140V230 9999 NCD 01/M01 Q1006 NOSIG
  • 121250Z AUTO 18005KT 130V220 9999 NCD 01/M01 Q1006 NOSIG

TAF TAF EGCC
Valid from the 12 at 12:00 until the 13 at 18:00 UTC


121102Z 1212/1318 17003KT 9999 FEW045
BECMG 1214/1217 19013KT
TEMPO 1217/1223 22015G25KT 6000 RA BKN008
PROB30
TEMPO 1218/1223 4000 +RA BKN004
TEMPO 1223/1304 BKN003
BECMG 1307/1310 25010KT 6000 RA BKN010
PROB30
TEMPO 1310/1312 28018G28KT 4000 +RA BKN008
BECMG 1312/1315 9999 NSW SCT020
ATIS : +44 161 499 2324
No reported NOTAMs for that airfield.
1 SIGMET reported for the London FIR (EGTT) :
 
Severe turbulence
EGTT SIGMET 03 VALID 121500/121900 EGRR
EGTT LONDON FIR SEV TURB FCST WI N5100 W00726 - N5207 W00519 - N4934 W00416 - N4926 W00456 - N4901 W00703 - N5100 W00726 FL200/420 MOV E 05KT NC=



MET'MAP, your aeronautical weather chart ! - Copyright ORBIFLY December 2007 - Disclaimer

ORBIFLY MET'MAP TEAM :

Programming & Development : Alexandra Zaïnal
Concept & Development : Baudouin d'Aumeries
Co-Development & Prog : Marc-Olivier Méhu
Technical & hardware support : Manuel Goepfert

Contact : metmap@orbifly.com




SOURCES & CREDITS :

   NOAA